sensor_id;sensor_type;location;lat;lon;timestamp;P1;durP1;ratioP1;P2;durP2;ratioP2
9852;SDS011;4965;43.238;27.864;2022-09-09T00:00:45;2.70;;;2.03;;
9852;SDS011;4965;43.238;27.864;2022-09-09T00:03:16;2.33;;;2.10;;
9852;SDS011;4965;43.238;27.864;2022-09-09T00:05:48;5.30;;;2.03;;
9852;SDS011;4965;43.238;27.864;2022-09-09T00:08:24;2.33;;;2.13;;
9852;SDS011;4965;43.238;27.864;2022-09-09T00:11:04;2.67;;;2.42;;
9852;SDS011;4965;43.238;27.864;2022-09-09T00:13:34;4.57;;;2.15;;
9852;SDS011;4965;43.238;27.864;2022-09-09T00:16:08;2.85;;;2.20;;
9852;SDS011;4965;43.238;27.864;2022-09-09T00:18:46;2.20;;;2.00;;
9852;SDS011;4965;43.238;27.864;2022-09-09T00:21:18;2.45;;;2.17;;
9852;SDS011;4965;43.238;27.864;2022-09-09T00:23:51;2.13;;;1.92;;
9852;SDS011;4965;43.238;27.864;2022-09-09T00:26:22;2.13;;;1.88;;
9852;SDS011;4965;43.238;27.864;2022-09-09T00:29:00;2.58;;;2.15;;
9852;SDS011;4965;43.238;27.864;2022-09-09T00:31:31;2.60;;;2.22;;
9852;SDS011;4965;43.238;27.864;2022-09-09T00:34:00;3.50;;;2.08;;
9852;SDS011;4965;43.238;27.864;2022-09-09T00:36:36;3.45;;;2.30;;
9852;SDS011;4965;43.238;27.864;2022-09-09T00:39:04;3.15;;;2.15;;
9852;SDS011;4965;43.238;27.864;2022-09-09T00:41:39;4.18;;;1.92;;
9852;SDS011;4965;43.238;27.864;2022-09-09T00:44:20;2.40;;;2.20;;
9852;SDS011;4965;43.238;27.864;2022-09-09T00:46:59;2.05;;;1.88;;
9852;SDS011;4965;43.238;27.864;2022-09-09T00:49:38;2.22;;;2.03;;
9852;SDS011;4965;43.238;27.864;2022-09-09T00:52:16;3.17;;;1.83;;
9852;SDS011;4965;43.238;27.864;2022-09-09T00:54:56;2.25;;;1.98;;
9852;SDS011;4965;43.238;27.864;2022-09-09T00:57:31;3.72;;;1.80;;
9852;SDS011;4965;43.238;27.864;2022-09-09T01:00:17;2.55;;;2.10;;
9852;SDS011;4965;43.238;27.864;2022-09-09T01:02:53;1.90;;;1.80;;
9852;SDS011;4965;43.238;27.864;2022-09-09T01:05:30;6.25;;;2.20;;
9852;SDS011;4965;43.238;27.864;2022-09-09T01:08:03;2.00;;;1.80;;
9852;SDS011;4965;43.238;27.864;2022-09-09T01:10:39;2.90;;;1.90;;
9852;SDS011;4965;43.238;27.864;2022-09-09T01:13:13;6.28;;;2.20;;
9852;SDS011;4965;43.238;27.864;2022-09-09T01:15:49;6.32;;;2.30;;
9852;SDS011;4965;43.238;27.864;2022-09-09T01:18:19;2.92;;;2.00;;
9852;SDS011;4965;43.238;27.864;2022-09-09T01:20:53;2.88;;;1.48;;
9852;SDS011;4965;43.238;27.864;2022-09-09T01:26:17;2.63;;;1.80;;
9852;SDS011;4965;43.238;27.864;2022-09-09T01:28:48;2.33;;;2.00;;
9852;SDS011;4965;43.238;27.864;2022-09-09T01:31:18;3.33;;;2.00;;
9852;SDS011;4965;43.238;27.864;2022-09-09T01:33:48;2.45;;;1.95;;
9852;SDS011;4965;43.238;27.864;2022-09-09T01:36:18;3.83;;;1.83;;
9852;SDS011;4965;43.238;27.864;2022-09-09T01:38:49;2.72;;;1.77;;
9852;SDS011;4965;43.238;27.864;2022-09-09T01:41:18;1.98;;;1.88;;
9852;SDS011;4965;43.238;27.864;2022-09-09T01:43:45;3.85;;;1.92;;
9852;SDS011;4965;43.238;27.864;2022-09-09T01:46:12;5.57;;;1.92;;
9852;SDS011;4965;43.238;27.864;2022-09-09T01:48:39;3.58;;;2.00;;
9852;SDS011;4965;43.238;27.864;2022-09-09T01:51:07;3.55;;;2.08;;
9852;SDS011;4965;43.238;27.864;2022-09-09T01:53:35;3.80;;;1.83;;
9852;SDS011;4965;43.238;27.864;2022-09-09T01:56:08;2.25;;;2.05;;
9852;SDS011;4965;43.238;27.864;2022-09-09T01:58:56;2.05;;;1.67;;
9852;SDS011;4965;43.238;27.864;2022-09-09T02:01:34;3.85;;;2.30;;
9852;SDS011;4965;43.238;27.864;2022-09-09T02:04:12;2.35;;;2.00;;
9852;SDS011;4965;43.238;27.864;2022-09-09T02:06:49;6.85;;;2.00;;
9852;SDS011;4965;43.238;27.864;2022-09-09T02:09:22;3.28;;;2.30;;
9852;SDS011;4965;43.238;27.864;2022-09-09T02:11:51;5.38;;;2.30;;
9852;SDS011;4965;43.238;27.864;2022-09-09T02:14:27;4.18;;;2.70;;
9852;SDS011;4965;43.238;27.864;2022-09-09T02:16:57;4.85;;;2.42;;
9852;SDS011;4965;43.238;27.864;2022-09-09T02:19:30;7.97;;;2.20;;
9852;SDS011;4965;43.238;27.864;2022-09-09T02:22:01;4.65;;;1.88;;
9852;SDS011;4965;43.238;27.864;2022-09-09T02:24:29;4.82;;;2.45;;
9852;SDS011;4965;43.238;27.864;2022-09-09T02:27:00;4.65;;;2.30;;
9852;SDS011;4965;43.238;27.864;2022-09-09T02:29:33;7.22;;;2.45;;
9852;SDS011;4965;43.238;27.864;2022-09-09T02:32:04;2.50;;;2.30;;
9852;SDS011;4965;43.238;27.864;2022-09-09T02:34:35;2.63;;;2.00;;
9852;SDS011;4965;43.238;27.864;2022-09-09T02:37:06;2.88;;;2.20;;
9852;SDS011;4965;43.238;27.864;2022-09-09T02:39:34;5.05;;;2.45;;
9852;SDS011;4965;43.238;27.864;2022-09-09T02:42:03;3.15;;;2.13;;
9852;SDS011;4965;43.238;27.864;2022-09-09T02:44:30;11.25;;;2.63;;
9852;SDS011;4965;43.238;27.864;2022-09-09T02:47:06;6.05;;;2.22;;
9852;SDS011;4965;43.238;27.864;2022-09-09T02:49:41;3.90;;;2.30;;
9852;SDS011;4965;43.238;27.864;2022-09-09T02:52:18;3.53;;;1.95;;
9852;SDS011;4965;43.238;27.864;2022-09-09T02:54:52;8.40;;;1.88;;
9852;SDS011;4965;43.238;27.864;2022-09-09T02:57:25;2.47;;;1.92;;
9852;SDS011;4965;43.238;27.864;2022-09-09T02:59:56;5.95;;;2.28;;
9852;SDS011;4965;43.238;27.864;2022-09-09T03:02:25;2.55;;;2.13;;
9852;SDS011;4965;43.238;27.864;2022-09-09T03:04:52;2.13;;;1.95;;
9852;SDS011;4965;43.238;27.864;2022-09-09T03:07:19;2.88;;;2.33;;
9852;SDS011;4965;43.238;27.864;2022-09-09T03:09:46;5.40;;;2.30;;
9852;SDS011;4965;43.238;27.864;2022-09-09T03:12:14;6.07;;;2.15;;
9852;SDS011;4965;43.238;27.864;2022-09-09T03:14:41;3.97;;;2.50;;
9852;SDS011;4965;43.238;27.864;2022-09-09T03:17:09;4.93;;;2.33;;
9852;SDS011;4965;43.238;27.864;2022-09-09T03:19:37;2.97;;;2.30;;
9852;SDS011;4965;43.238;27.864;2022-09-09T03:22:05;3.55;;;2.17;;
9852;SDS011;4965;43.238;27.864;2022-09-09T03:24:32;2.55;;;2.33;;
9852;SDS011;4965;43.238;27.864;2022-09-09T03:26:58;5.72;;;2.38;;
9852;SDS011;4965;43.238;27.864;2022-09-09T03:29:25;2.60;;;2.03;;
9852;SDS011;4965;43.238;27.864;2022-09-09T03:31:52;3.60;;;2.20;;
9852;SDS011;4965;43.238;27.864;2022-09-09T03:34:19;2.50;;;2.05;;
9852;SDS011;4965;43.238;27.864;2022-09-09T03:36:48;6.60;;;2.30;;
9852;SDS011;4965;43.238;27.864;2022-09-09T03:39:15;3.88;;;1.98;;
9852;SDS011;4965;43.238;27.864;2022-09-09T03:41:42;5.45;;;2.45;;
9852;SDS011;4965;43.238;27.864;2022-09-09T03:44:11;3.58;;;1.88;;
9852;SDS011;4965;43.238;27.864;2022-09-09T03:46:38;4.85;;;2.25;;
9852;SDS011;4965;43.238;27.864;2022-09-09T03:49:05;4.43;;;2.20;;
9852;SDS011;4965;43.238;27.864;2022-09-09T03:51:32;3.08;;;2.10;;
9852;SDS011;4965;43.238;27.864;2022-09-09T03:54:03;6.97;;;2.42;;
9852;SDS011;4965;43.238;27.864;2022-09-09T03:56:33;4.25;;;2.45;;
9852;SDS011;4965;43.238;27.864;2022-09-09T03:59:00;3.17;;;2.00;;
9852;SDS011;4965;43.238;27.864;2022-09-09T04:01:27;3.00;;;2.20;;
9852;SDS011;4965;43.238;27.864;2022-09-09T04:03:55;6.22;;;2.20;;
9852;SDS011;4965;43.238;27.864;2022-09-09T04:06:23;5.85;;;2.28;;
9852;SDS011;4965;43.238;27.864;2022-09-09T04:08:51;4.78;;;3.10;;
9852;SDS011;4965;43.238;27.864;2022-09-09T04:11:19;17.15;;;3.60;;
9852;SDS011;4965;43.238;27.864;2022-09-09T04:13:46;3.75;;;2.22;;
9852;SDS011;4965;43.238;27.864;2022-09-09T04:16:14;5.38;;;2.55;;
9852;SDS011;4965;43.238;27.864;2022-09-09T04:18:41;4.93;;;1.92;;
9852;SDS011;4965;43.238;27.864;2022-09-09T04:21:08;8.30;;;2.17;;
9852;SDS011;4965;43.238;27.864;2022-09-09T04:23:37;9.40;;;2.00;;
9852;SDS011;4965;43.238;27.864;2022-09-09T04:26:04;4.15;;;1.95;;
9852;SDS011;4965;43.238;27.864;2022-09-09T04:28:34;5.15;;;2.55;;
9852;SDS011;4965;43.238;27.864;2022-09-09T04:31:06;7.38;;;1.90;;
9852;SDS011;4965;43.238;27.864;2022-09-09T04:33:34;8.32;;;2.40;;
9852;SDS011;4965;43.238;27.864;2022-09-09T04:36:01;14.23;;;2.80;;
9852;SDS011;4965;43.238;27.864;2022-09-09T04:38:28;7.35;;;2.05;;
9852;SDS011;4965;43.238;27.864;2022-09-09T04:40:55;6.53;;;2.13;;
9852;SDS011;4965;43.238;27.864;2022-09-09T04:43:22;7.03;;;2.10;;
9852;SDS011;4965;43.238;27.864;2022-09-09T04:45:52;7.25;;;2.20;;
9852;SDS011;4965;43.238;27.864;2022-09-09T04:48:19;9.50;;;2.75;;
9852;SDS011;4965;43.238;27.864;2022-09-09T04:50:56;14.95;;;2.95;;
9852;SDS011;4965;43.238;27.864;2022-09-09T04:53:24;8.65;;;2.78;;
9852;SDS011;4965;43.238;27.864;2022-09-09T04:55:52;6.53;;;2.53;;
9852;SDS011;4965;43.238;27.864;2022-09-09T04:58:19;8.40;;;2.40;;
9852;SDS011;4965;43.238;27.864;2022-09-09T05:00:49;14.95;;;2.78;;
9852;SDS011;4965;43.238;27.864;2022-09-09T05:03:18;7.85;;;2.50;;
9852;SDS011;4965;43.238;27.864;2022-09-09T05:05:54;18.90;;;3.38;;
9852;SDS011;4965;43.238;27.864;2022-09-09T05:08:29;23.50;;;3.67;;
9852;SDS011;4965;43.238;27.864;2022-09-09T05:10:57;14.07;;;3.17;;
9852;SDS011;4965;43.238;27.864;2022-09-09T05:13:26;10.02;;;3.28;;
9852;SDS011;4965;43.238;27.864;2022-09-09T05:15:54;12.88;;;2.75;;
9852;SDS011;4965;43.238;27.864;2022-09-09T05:18:23;8.48;;;2.35;;
9852;SDS011;4965;43.238;27.864;2022-09-09T05:20:50;7.00;;;2.45;;
9852;SDS011;4965;43.238;27.864;2022-09-09T05:23:17;8.88;;;2.63;;
9852;SDS011;4965;43.238;27.864;2022-09-09T05:25:53;7.22;;;2.45;;
9852;SDS011;4965;43.238;27.864;2022-09-09T05:28:22;9.77;;;2.20;;
9852;SDS011;4965;43.238;27.864;2022-09-09T05:30:54;14.57;;;2.35;;
9852;SDS011;4965;43.238;27.864;2022-09-09T05:33:23;6.38;;;2.17;;
9852;SDS011;4965;43.238;27.864;2022-09-09T05:35:56;8.07;;;2.25;;
9852;SDS011;4965;43.238;27.864;2022-09-09T05:38:24;4.10;;;1.98;;
9852;SDS011;4965;43.238;27.864;2022-09-09T05:40:51;4.20;;;2.22;;
9852;SDS011;4965;43.238;27.864;2022-09-09T05:43:19;5.97;;;1.80;;
9852;SDS011;4965;43.238;27.864;2022-09-09T05:45:46;4.97;;;1.92;;
9852;SDS011;4965;43.238;27.864;2022-09-09T05:48:13;10.32;;;2.67;;
9852;SDS011;4965;43.238;27.864;2022-09-09T05:50:43;5.82;;;1.95;;
9852;SDS011;4965;43.238;27.864;2022-09-09T05:53:21;8.60;;;2.35;;
9852;SDS011;4965;43.238;27.864;2022-09-09T05:55:47;6.85;;;2.25;;
9852;SDS011;4965;43.238;27.864;2022-09-09T05:58:14;5.88;;;2.10;;
9852;SDS011;4965;43.238;27.864;2022-09-09T06:00:42;6.47;;;2.10;;
9852;SDS011;4965;43.238;27.864;2022-09-09T06:03:10;4.65;;;1.90;;
9852;SDS011;4965;43.238;27.864;2022-09-09T06:05:37;2.17;;;1.85;;
9852;SDS011;4965;43.238;27.864;2022-09-09T06:08:06;11.77;;;2.78;;
9852;SDS011;4965;43.238;27.864;2022-09-09T06:10:33;4.15;;;2.15;;
9852;SDS011;4965;43.238;27.864;2022-09-09T06:13:01;4.68;;;2.53;;
9852;SDS011;4965;43.238;27.864;2022-09-09T06:15:28;5.82;;;2.13;;
9852;SDS011;4965;43.238;27.864;2022-09-09T06:17:55;3.85;;;1.88;;
9852;SDS011;4965;43.238;27.864;2022-09-09T06:20:22;5.63;;;1.80;;
9852;SDS011;4965;43.238;27.864;2022-09-09T06:22:49;9.35;;;1.92;;
9852;SDS011;4965;43.238;27.864;2022-09-09T06:25:18;3.17;;;2.00;;
9852;SDS011;4965;43.238;27.864;2022-09-09T06:27:48;4.40;;;2.08;;
9852;SDS011;4965;43.238;27.864;2022-09-09T06:30:16;6.93;;;1.60;;
9852;SDS011;4965;43.238;27.864;2022-09-09T06:32:43;4.30;;;2.15;;
9852;SDS011;4965;43.238;27.864;2022-09-09T06:35:10;7.47;;;2.00;;
9852;SDS011;4965;43.238;27.864;2022-09-09T06:37:37;10.23;;;2.10;;
9852;SDS011;4965;43.238;27.864;2022-09-09T06:40:05;3.88;;;2.00;;
9852;SDS011;4965;43.238;27.864;2022-09-09T06:42:34;9.18;;;1.70;;
9852;SDS011;4965;43.238;27.864;2022-09-09T06:45:01;5.15;;;1.75;;
9852;SDS011;4965;43.238;27.864;2022-09-09T06:47:28;8.68;;;1.90;;
9852;SDS011;4965;43.238;27.864;2022-09-09T06:49:55;2.78;;;1.95;;
9852;SDS011;4965;43.238;27.864;2022-09-09T06:52:23;4.93;;;1.30;;
9852;SDS011;4965;43.238;27.864;2022-09-09T06:54:51;5.70;;;2.05;;
9852;SDS011;4965;43.238;27.864;2022-09-09T06:57:18;5.18;;;1.92;;
9852;SDS011;4965;43.238;27.864;2022-09-09T06:59:47;7.15;;;2.22;;
9852;SDS011;4965;43.238;27.864;2022-09-09T07:02:14;14.32;;;2.10;;
9852;SDS011;4965;43.238;27.864;2022-09-09T07:04:40;2.20;;;1.60;;
9852;SDS011;4965;43.238;27.864;2022-09-09T07:07:08;3.85;;;1.73;;
9852;SDS011;4965;43.238;27.864;2022-09-09T07:09:37;5.22;;;1.60;;
9852;SDS011;4965;43.238;27.864;2022-09-09T07:12:05;4.82;;;1.60;;
9852;SDS011;4965;43.238;27.864;2022-09-09T07:14:32;3.80;;;1.58;;
9852;SDS011;4965;43.238;27.864;2022-09-09T07:17:04;6.95;;;1.90;;
9852;SDS011;4965;43.238;27.864;2022-09-09T07:19:30;5.68;;;2.60;;
9852;SDS011;4965;43.238;27.864;2022-09-09T07:21:59;3.85;;;1.92;;
9852;SDS011;4965;43.238;27.864;2022-09-09T07:24:27;6.93;;;2.05;;
9852;SDS011;4965;43.238;27.864;2022-09-09T07:26:55;2.45;;;1.60;;
9852;SDS011;4965;43.238;27.864;2022-09-09T07:29:22;5.53;;;2.17;;
9852;SDS011;4965;43.238;27.864;2022-09-09T07:31:49;3.25;;;1.88;;
9852;SDS011;4965;43.238;27.864;2022-09-09T07:34:18;4.10;;;2.25;;
9852;SDS011;4965;43.238;27.864;2022-09-09T07:36:44;6.78;;;1.95;;
9852;SDS011;4965;43.238;27.864;2022-09-09T07:39:12;4.82;;;1.95;;
9852;SDS011;4965;43.238;27.864;2022-09-09T07:41:41;4.25;;;1.63;;
9852;SDS011;4965;43.238;27.864;2022-09-09T07:44:10;3.92;;;2.20;;
9852;SDS011;4965;43.238;27.864;2022-09-09T07:46:38;4.70;;;1.80;;
9852;SDS011;4965;43.238;27.864;2022-09-09T07:49:06;8.35;;;1.80;;
9852;SDS011;4965;43.238;27.864;2022-09-09T07:51:36;2.67;;;1.80;;
9852;SDS011;4965;43.238;27.864;2022-09-09T07:54:05;3.58;;;1.80;;
9852;SDS011;4965;43.238;27.864;2022-09-09T07:56:34;4.45;;;1.77;;
9852;SDS011;4965;43.238;27.864;2022-09-09T07:59:02;5.18;;;1.50;;
9852;SDS011;4965;43.238;27.864;2022-09-09T08:01:32;3.38;;;1.52;;
9852;SDS011;4965;43.238;27.864;2022-09-09T08:04:03;6.75;;;2.17;;
9852;SDS011;4965;43.238;27.864;2022-09-09T08:06:33;5.90;;;1.70;;
9852;SDS011;4965;43.238;27.864;2022-09-09T08:09:04;4.85;;;1.77;;
9852;SDS011;4965;43.238;27.864;2022-09-09T08:11:31;39.70;;;3.53;;
9852;SDS011;4965;43.238;27.864;2022-09-09T08:13:59;7.60;;;2.10;;
9852;SDS011;4965;43.238;27.864;2022-09-09T08:16:26;11.68;;;2.00;;
9852;SDS011;4965;43.238;27.864;2022-09-09T08:18:55;4.75;;;1.50;;
9852;SDS011;4965;43.238;27.864;2022-09-09T08:21:24;4.18;;;1.73;;
9852;SDS011;4965;43.238;27.864;2022-09-09T08:23:55;11.48;;;2.22;;
9852;SDS011;4965;43.238;27.864;2022-09-09T08:26:23;7.05;;;1.70;;
9852;SDS011;4965;43.238;27.864;2022-09-09T08:28:52;5.00;;;1.90;;
9852;SDS011;4965;43.238;27.864;2022-09-09T08:31:21;3.85;;;1.27;;
9852;SDS011;4965;43.238;27.864;2022-09-09T08:33:50;4.63;;;1.65;;
9852;SDS011;4965;43.238;27.864;2022-09-09T08:36:18;7.90;;;1.48;;
9852;SDS011;4965;43.238;27.864;2022-09-09T08:38:47;4.15;;;2.17;;
9852;SDS011;4965;43.238;27.864;2022-09-09T08:44:14;8.57;;;1.60;;
9852;SDS011;4965;43.238;27.864;2022-09-09T08:46:52;26.80;;;4.00;;
9852;SDS011;4965;43.238;27.864;2022-09-09T08:49:38;24.67;;;2.60;;
9852;SDS011;4965;43.238;27.864;2022-09-09T08:52:27;2.30;;;1.80;;
9852;SDS011;4965;43.238;27.864;2022-09-09T08:54:56;5.47;;;1.90;;
9852;SDS011;4965;43.238;27.864;2022-09-09T08:57:30;16.85;;;2.40;;
9852;SDS011;4965;43.238;27.864;2022-09-09T08:59:58;6.63;;;2.25;;
9852;SDS011;4965;43.238;27.864;2022-09-09T09:02:27;8.88;;;2.53;;
9852;SDS011;4965;43.238;27.864;2022-09-09T09:05:07;6.50;;;1.92;;
9852;SDS011;4965;43.238;27.864;2022-09-09T09:07:54;3.97;;;1.73;;
9852;SDS011;4965;43.238;27.864;2022-09-09T09:10:32;18.65;;;2.50;;
9852;SDS011;4965;43.238;27.864;2022-09-09T09:13:24;5.00;;;2.00;;
9852;SDS011;4965;43.238;27.864;2022-09-09T09:16:00;21.73;;;3.33;;
9852;SDS011;4965;43.238;27.864;2022-09-09T09:18:32;7.03;;;2.63;;
9852;SDS011;4965;43.238;27.864;2022-09-09T09:21:02;25.40;;;4.10;;
9852;SDS011;4965;43.238;27.864;2022-09-09T09:23:38;14.43;;;1.92;;
9852;SDS011;4965;43.238;27.864;2022-09-09T09:26:10;13.13;;;2.20;;
9852;SDS011;4965;43.238;27.864;2022-09-09T09:28:38;5.38;;;1.88;;
9852;SDS011;4965;43.238;27.864;2022-09-09T09:31:06;4.55;;;1.70;;
9852;SDS011;4965;43.238;27.864;2022-09-09T09:33:37;5.65;;;1.50;;
9852;SDS011;4965;43.238;27.864;2022-09-09T09:36:11;3.33;;;1.50;;
9852;SDS011;4965;43.238;27.864;2022-09-09T09:38:40;4.93;;;1.50;;
9852;SDS011;4965;43.238;27.864;2022-09-09T09:41:30;3.17;;;1.58;;
9852;SDS011;4965;43.238;27.864;2022-09-09T09:44:02;4.22;;;1.77;;
9852;SDS011;4965;43.238;27.864;2022-09-09T09:46:31;6.22;;;1.60;;
9852;SDS011;4965;43.238;27.864;2022-09-09T09:48:58;7.35;;;1.83;;
9852;SDS011;4965;43.238;27.864;2022-09-09T09:51:26;10.50;;;2.15;;
9852;SDS011;4965;43.238;27.864;2022-09-09T09:54:06;6.05;;;2.22;;
9852;SDS011;4965;43.238;27.864;2022-09-09T09:56:40;18.63;;;2.33;;
9852;SDS011;4965;43.238;27.864;2022-09-09T09:59:19;12.93;;;2.17;;
9852;SDS011;4965;43.238;27.864;2022-09-09T10:02:05;17.55;;;2.30;;
9852;SDS011;4965;43.238;27.864;2022-09-09T10:04:39;4.10;;;2.15;;
9852;SDS011;4965;43.238;27.864;2022-09-09T10:07:10;7.75;;;2.35;;
9852;SDS011;4965;43.238;27.864;2022-09-09T10:09:37;31.02;;;3.78;;
9852;SDS011;4965;43.238;27.864;2022-09-09T10:12:06;12.30;;;2.50;;
9852;SDS011;4965;43.238;27.864;2022-09-09T10:14:44;11.90;;;1.83;;
9852;SDS011;4965;43.238;27.864;2022-09-09T10:17:19;8.25;;;2.28;;
9852;SDS011;4965;43.238;27.864;2022-09-09T10:19:55;6.15;;;1.60;;
9852;SDS011;4965;43.238;27.864;2022-09-09T10:22:37;3.90;;;1.88;;
9852;SDS011;4965;43.238;27.864;2022-09-09T10:25:17;9.25;;;2.20;;
9852;SDS011;4965;43.238;27.864;2022-09-09T10:28:03;6.50;;;1.80;;
9852;SDS011;4965;43.238;27.864;2022-09-09T10:30:49;4.93;;;1.92;;
9852;SDS011;4965;43.238;27.864;2022-09-09T10:33:26;8.10;;;2.42;;
9852;SDS011;4965;43.238;27.864;2022-09-09T10:36:02;4.50;;;1.85;;
9852;SDS011;4965;43.238;27.864;2022-09-09T10:38:39;3.97;;;2.10;;
9852;SDS011;4965;43.238;27.864;2022-09-09T10:41:13;3.47;;;1.60;;
9852;SDS011;4965;43.238;27.864;2022-09-09T10:43:52;12.52;;;2.20;;
9852;SDS011;4965;43.238;27.864;2022-09-09T10:46:52;5.47;;;2.00;;
9852;SDS011;4965;43.238;27.864;2022-09-09T10:49:38;3.25;;;1.85;;
9852;SDS011;4965;43.238;27.864;2022-09-09T10:52:24;5.15;;;1.80;;
9852;SDS011;4965;43.238;27.864;2022-09-09T10:54:59;6.80;;;1.75;;
9852;SDS011;4965;43.238;27.864;2022-09-09T10:57:33;3.90;;;1.50;;
9852;SDS011;4965;43.238;27.864;2022-09-09T11:00:05;4.38;;;2.05;;
9852;SDS011;4965;43.238;27.864;2022-09-09T11:02:41;5.35;;;1.92;;
9852;SDS011;4965;43.238;27.864;2022-09-09T11:05:10;5.38;;;1.90;;
9852;SDS011;4965;43.238;27.864;2022-09-09T11:07:44;6.35;;;2.00;;
9852;SDS011;4965;43.238;27.864;2022-09-09T11:10:17;6.13;;;2.10;;
9852;SDS011;4965;43.238;27.864;2022-09-09T11:12:50;3.55;;;1.50;;
9852;SDS011;4965;43.238;27.864;2022-09-09T11:15:23;6.07;;;2.10;;
9852;SDS011;4965;43.238;27.864;2022-09-09T11:18:00;9.73;;;1.90;;
9852;SDS011;4965;43.238;27.864;2022-09-09T11:20:31;5.80;;;1.60;;
9852;SDS011;4965;43.238;27.864;2022-09-09T11:22:59;9.55;;;1.95;;
9852;SDS011;4965;43.238;27.864;2022-09-09T11:25:31;2.70;;;1.63;;
9852;SDS011;4965;43.238;27.864;2022-09-09T11:28:12;5.30;;;1.75;;
9852;SDS011;4965;43.238;27.864;2022-09-09T11:30:54;6.22;;;1.83;;
9852;SDS011;4965;43.238;27.864;2022-09-09T11:42:34;11.43;;;2.25;;
9852;SDS011;4965;43.238;27.864;2022-09-09T11:45:09;2.63;;;2.15;;
9852;SDS011;4965;43.238;27.864;2022-09-09T11:47:51;8.02;;;2.28;;
9852;SDS011;4965;43.238;27.864;2022-09-09T11:50:31;13.75;;;2.25;;
9852;SDS011;4965;43.238;27.864;2022-09-09T11:53:18;10.88;;;2.25;;
9852;SDS011;4965;43.238;27.864;2022-09-09T11:58:55;7.35;;;2.58;;
9852;SDS011;4965;43.238;27.864;2022-09-09T12:01:28;7.68;;;2.05;;
9852;SDS011;4965;43.238;27.864;2022-09-09T12:04:06;3.28;;;2.17;;
9852;SDS011;4965;43.238;27.864;2022-09-09T12:06:54;3.75;;;2.13;;
9852;SDS011;4965;43.238;27.864;2022-09-09T12:09:26;3.97;;;1.85;;
9852;SDS011;4965;43.238;27.864;2022-09-09T12:15:01;3.55;;;1.58;;
9852;SDS011;4965;43.238;27.864;2022-09-09T12:17:46;3.63;;;1.75;;
9852;SDS011;4965;43.238;27.864;2022-09-09T12:20:16;7.05;;;1.70;;
9852;SDS011;4965;43.238;27.864;2022-09-09T12:25:36;6.20;;;1.63;;
9852;SDS011;4965;43.238;27.864;2022-09-09T12:28:15;4.88;;;1.92;;
9852;SDS011;4965;43.238;27.864;2022-09-09T12:30:47;13.50;;;2.13;;
9852;SDS011;4965;43.238;27.864;2022-09-09T12:33:32;2.42;;;1.55;;
9852;SDS011;4965;43.238;27.864;2022-09-09T12:36:01;6.30;;;1.60;;
9852;SDS011;4965;43.238;27.864;2022-09-09T12:38:34;12.50;;;2.17;;
9852;SDS011;4965;43.238;27.864;2022-09-09T12:41:02;5.95;;;1.60;;
9852;SDS011;4965;43.238;27.864;2022-09-09T12:43:29;5.63;;;1.60;;
9852;SDS011;4965;43.238;27.864;2022-09-09T12:45:57;3.13;;;1.58;;
9852;SDS011;4965;43.238;27.864;2022-09-09T12:48:31;6.15;;;2.00;;
9852;SDS011;4965;43.238;27.864;2022-09-09T12:51:01;1.60;;;1.50;;
9852;SDS011;4965;43.238;27.864;2022-09-09T12:53:33;6.03;;;1.88;;
9852;SDS011;4965;43.238;27.864;2022-09-09T12:56:04;4.90;;;1.80;;
9852;SDS011;4965;43.238;27.864;2022-09-09T12:58:34;3.90;;;1.80;;
9852;SDS011;4965;43.238;27.864;2022-09-09T13:01:04;40.05;;;3.72;;
9852;SDS011;4965;43.238;27.864;2022-09-09T13:03:32;5.47;;;1.88;;
9852;SDS011;4965;43.238;27.864;2022-09-09T13:06:10;6.40;;;1.73;;
9852;SDS011;4965;43.238;27.864;2022-09-09T13:08:40;14.65;;;1.92;;
9852;SDS011;4965;43.238;27.864;2022-09-09T13:11:10;5.85;;;1.80;;
9852;SDS011;4965;43.238;27.864;2022-09-09T13:13:41;7.40;;;2.30;;
9852;SDS011;4965;43.238;27.864;2022-09-09T13:16:18;66.47;;;5.88;;
9852;SDS011;4965;43.238;27.864;2022-09-09T13:18:47;153.07;;;10.77;;
9852;SDS011;4965;43.238;27.864;2022-09-09T13:21:14;161.15;;;97.18;;
9852;SDS011;4965;43.238;27.864;2022-09-09T13:23:47;110.57;;;63.60;;
9852;SDS011;4965;43.238;27.864;2022-09-09T13:26:20;42.05;;;23.67;;
9852;SDS011;4965;43.238;27.864;2022-09-09T13:28:49;4.47;;;2.58;;
9852;SDS011;4965;43.238;27.864;2022-09-09T13:31:22;5.80;;;2.13;;
9852;SDS011;4965;43.238;27.864;2022-09-09T13:33:52;11.10;;;2.42;;
9852;SDS011;4965;43.238;27.864;2022-09-09T13:36:27;1.90;;;1.77;;
9852;SDS011;4965;43.238;27.864;2022-09-09T13:38:57;6.70;;;2.15;;
9852;SDS011;4965;43.238;27.864;2022-09-09T13:41:28;4.20;;;1.80;;
9852;SDS011;4965;43.238;27.864;2022-09-09T13:43:58;4.00;;;2.10;;
9852;SDS011;4965;43.238;27.864;2022-09-09T13:46:28;7.53;;;2.08;;
9852;SDS011;4965;43.238;27.864;2022-09-09T13:49:00;4.22;;;2.25;;
9852;SDS011;4965;43.238;27.864;2022-09-09T13:51:39;3.67;;;2.00;;
9852;SDS011;4965;43.238;27.864;2022-09-09T13:54:09;2.72;;;2.17;;
9852;SDS011;4965;43.238;27.864;2022-09-09T13:56:38;8.32;;;2.22;;
9852;SDS011;4965;43.238;27.864;2022-09-09T13:59:06;5.13;;;2.70;;
9852;SDS011;4965;43.238;27.864;2022-09-09T14:01:37;6.55;;;2.75;;
9852;SDS011;4965;43.238;27.864;2022-09-09T14:04:04;3.42;;;2.45;;
9852;SDS011;4965;43.238;27.864;2022-09-09T14:06:31;7.93;;;2.75;;
9852;SDS011;4965;43.238;27.864;2022-09-09T14:09:00;7.22;;;2.53;;
9852;SDS011;4965;43.238;27.864;2022-09-09T14:11:28;3.20;;;2.75;;
9852;SDS011;4965;43.238;27.864;2022-09-09T14:13:55;8.52;;;2.75;;
9852;SDS011;4965;43.238;27.864;2022-09-09T14:16:22;5.03;;;2.45;;
9852;SDS011;4965;43.238;27.864;2022-09-09T14:18:49;2.95;;;2.58;;
9852;SDS011;4965;43.238;27.864;2022-09-09T14:21:15;4.72;;;3.00;;
9852;SDS011;4965;43.238;27.864;2022-09-09T14:23:43;19.50;;;3.60;;
9852;SDS011;4965;43.238;27.864;2022-09-09T14:26:10;6.22;;;2.92;;
9852;SDS011;4965;43.238;27.864;2022-09-09T14:28:38;6.35;;;3.00;;
9852;SDS011;4965;43.238;27.864;2022-09-09T14:31:05;9.43;;;3.47;;
9852;SDS011;4965;43.238;27.864;2022-09-09T14:33:32;8.77;;;3.20;;
9852;SDS011;4965;43.238;27.864;2022-09-09T14:36:00;6.40;;;2.85;;
9852;SDS011;4965;43.238;27.864;2022-09-09T14:38:28;5.47;;;2.97;;
9852;SDS011;4965;43.238;27.864;2022-09-09T14:40:56;4.25;;;2.38;;
9852;SDS011;4965;43.238;27.864;2022-09-09T14:43:24;3.38;;;3.08;;
9852;SDS011;4965;43.238;27.864;2022-09-09T14:45:53;4.65;;;3.00;;
9852;SDS011;4965;43.238;27.864;2022-09-09T14:48:20;5.75;;;3.22;;
9852;SDS011;4965;43.238;27.864;2022-09-09T14:50:47;4.82;;;2.53;;
9852;SDS011;4965;43.238;27.864;2022-09-09T14:53:15;4.63;;;2.50;;
9852;SDS011;4965;43.238;27.864;2022-09-09T14:55:43;5.50;;;2.70;;
9852;SDS011;4965;43.238;27.864;2022-09-09T14:58:11;7.60;;;3.00;;
9852;SDS011;4965;43.238;27.864;2022-09-09T15:00:39;3.58;;;3.08;;
9852;SDS011;4965;43.238;27.864;2022-09-09T15:03:07;4.68;;;3.60;;
9852;SDS011;4965;43.238;27.864;2022-09-09T15:05:36;5.97;;;2.60;;
9852;SDS011;4965;43.238;27.864;2022-09-09T15:08:03;7.53;;;2.95;;
9852;SDS011;4965;43.238;27.864;2022-09-09T15:10:29;6.22;;;2.80;;
9852;SDS011;4965;43.238;27.864;2022-09-09T15:12:58;8.50;;;2.58;;
9852;SDS011;4965;43.238;27.864;2022-09-09T15:15:25;6.03;;;2.80;;
9852;SDS011;4965;43.238;27.864;2022-09-09T15:17:52;4.03;;;2.83;;
9852;SDS011;4965;43.238;27.864;2022-09-09T15:20:20;4.85;;;2.83;;
9852;SDS011;4965;43.238;27.864;2022-09-09T15:22:47;7.57;;;2.85;;
9852;SDS011;4965;43.238;27.864;2022-09-09T15:25:16;7.57;;;2.90;;
9852;SDS011;4965;43.238;27.864;2022-09-09T15:27:43;3.33;;;2.72;;
9852;SDS011;4965;43.238;27.864;2022-09-09T15:30:10;7.30;;;3.03;;
9852;SDS011;4965;43.238;27.864;2022-09-09T15:32:38;5.45;;;3.08;;
9852;SDS011;4965;43.238;27.864;2022-09-09T15:35:05;3.55;;;2.50;;
9852;SDS011;4965;43.238;27.864;2022-09-09T15:37:34;4.25;;;2.70;;
9852;SDS011;4965;43.238;27.864;2022-09-09T15:40:01;2.90;;;2.65;;
9852;SDS011;4965;43.238;27.864;2022-09-09T15:42:28;3.55;;;2.60;;
9852;SDS011;4965;43.238;27.864;2022-09-09T15:44:55;7.53;;;3.15;;
9852;SDS011;4965;43.238;27.864;2022-09-09T15:47:22;2.88;;;2.40;;